Time;durP1;ratioP1;P1;durP2;ratioP2;P2;SDS_P1;SDS_P2;PMS_P1;PMS_P2;Temp;Humidity;BMP_temperature;BMP_pressure;BME280_temperature;BME280_humidity;BME280_pressure;Samples;Min_cycle;Max_cycle;Signal;HPM_P1;HPM_P2
2023/03/06 00:00:33;;;;;;;;;;;;;;;;;;6159448;23;20275;-78
2023/03/06 00:02:58;;;;;;;;;;;;;;;;;;6132085;23;20344;-77
2023/03/06 00:05:23;;;;;;;;;;;;;;;;;;6156542;23;19943;-78
2023/03/06 00:07:49;;;;;;;;;;;;;;;;;;6156608;23;19935;-77
2023/03/06 00:10:14;;;;;;;;;;;;;;;;;;6157178;23;20242;-79
2023/03/06 00:12:40;;;;;;;;;;;;;;;;;;6155069;23;19940;-78
2023/03/06 00:15:05;;;;;;;;;;;;;;;;;;6156429;23;20394;-77
2023/03/06 00:17:30;;;;;;;;;;;;;;;;;;6157026;23;20353;-77
2023/03/06 00:19:56;;;;;;;;;;;;;;;;;;6155567;23;19908;-78
2023/03/06 00:22:21;;;;;;;;;;;;;;;;;;6156559;23;19959;-77
2023/03/06 00:24:46;;;;;;;;;;;;;;;;;;6156773;23;19909;-78
2023/03/06 00:27:12;;;;;;;;;;;;;;;;;;6160578;23;20250;-78
2023/03/06 00:29:37;;;;;;;;;;;;;;;;;;6157300;23;19919;-78
2023/03/06 00:32:03;;;;;;;;;;;;;;;;;;6155429;23;20318;-78
2023/03/06 00:34:28;;;;;;;;;;;;;;;;;;6154869;23;19912;-78
2023/03/06 00:36:53;;;;;;;;;;;;;;;;;;6156368;23;19909;-78
2023/03/06 00:39:19;;;;;;;;;;;;;;;;;;6156706;23;20327;-78
2023/03/06 00:41:44;;;;;;;;;;;;;;;;;;6130135;23;19909;-78
2023/03/06 00:44:10;;;;;;;;;;;;;;;;;;6155342;23;19908;-78
2023/03/06 00:46:35;;;;;;;;;;;;;;;;;;6157614;23;20504;-78
2023/03/06 00:49:00;;;;;;;;;;;;;;;;;;6157407;23;19916;-78
2023/03/06 00:51:26;;;;;;;;;;;;;;;;;;6132603;23;20333;-78
2023/03/06 00:53:51;;;;;;;;;;;;;;;;;;6159076;23;19909;-77
2023/03/06 00:56:17;;;;;;;;;;;;;;;;;;6131833;23;19952;-78
2023/03/06 00:58:42;;;;;;;;;;;;;;;;;;6157902;23;19912;-78
2023/03/06 01:01:08;;;;;;;;;;;;;;;;;;6158783;23;19913;-78
2023/03/06 01:03:33;;;;;;;;;;;;;;;;;;6157525;23;20246;-78
2023/03/06 01:05:59;;;;;;;;;;;;;;;;;;6132918;23;19908;-78
2023/03/06 01:08:24;;;;;;;;;;;;;;;;;;6157653;23;19913;-78
2023/03/06 01:10:49;;;;;;;;;;;;;;;;;;6158048;23;19979;-78
2023/03/06 01:13:15;;;;;;;;;;;;;;;;;;6157506;23;20385;-78
2023/03/06 01:15:40;;;;;;;;;;;;;;;;;;6134234;23;19909;-77
2023/03/06 01:18:05;;;;;;;;;;;;;;;;;;6160960;23;20321;-78
2023/03/06 01:20:31;;;;;;;;;;;;;;;;;;6158625;23;19909;-78
2023/03/06 01:22:57;;;;;;;;;;;;;;;;;;6159477;23;19908;-78
2023/03/06 01:25:22;;;;;;;;;;;;;;;;;;6135934;23;20357;-78
2023/03/06 01:27:49;;;;;;;;;;;;;;;;;;6159208;23;19908;-78
2023/03/06 01:30:15;;;;;;;;;;;;;;;;;;6160351;23;20294;-78
2023/03/06 01:32:40;;;;;;;;;;;;;;;;;;6160029;23;20361;-78
2023/03/06 01:35:05;;;;;;;;;;;;;;;;;;6162253;23;19912;-78
2023/03/06 01:37:31;;;;;;;;;;;;;;;;;;6135290;23;19956;-78
2023/03/06 01:39:56;;;;;;;;;;;;;;;;;;6160198;23;19908;-78
2023/03/06 01:42:22;;;;;;;;;;;;;;;;;;6159885;23;19924;-78
2023/03/06 01:44:50;;;;;;;;;;;;;;;;;;6159076;23;19909;-78
2023/03/06 01:47:15;;;;;;;;;;;;;;;;;;6160782;23;19915;-78
2023/03/06 01:49:41;;;;;;;;;;;;;;;;;;6134891;23;19916;-78
2023/03/06 01:52:06;;;;;;;;;;;;;;;;;;6162123;23;19963;-78
2023/03/06 01:54:32;;;;;;;;;;;;;;;;;;6163433;23;19909;-78
2023/03/06 01:56:57;;;;;;;;;;;;;;;;;;6164815;23;19915;-77
2023/03/06 01:59:22;;;;;;;;;;;;;;;;;;6138965;23;19920;-78
2023/03/06 02:01:48;;;;;;;;;;;;;;;;;;6162347;23;19912;-78
2023/03/06 02:04:14;;;;;;;;;;;;;;;;;;6158893;23;19915;-78
2023/03/06 02:06:41;;;;;;;;;;;;;;;;;;6160516;23;20282;-78
2023/03/06 02:09:07;;;;;;;;;;;;;;;;;;6133872;23;19919;-77
2023/03/06 02:11:32;;;;;;;;;;;;;;;;;;6158630;23;19909;-77
2023/03/06 02:13:58;;;;;;;;;;;;;;;;;;6158683;23;19916;-78
2023/03/06 02:16:23;;;;;;;;;;;;;;;;;;6132092;23;19909;-77
2023/03/06 02:18:48;;;;;;;;;;;;;;;;;;6156872;23;19959;-78
2023/03/06 02:21:19;;;;;;;;;;;;;;;;;;6158025;23;19981;-78
2023/03/06 02:23:44;;;;;;;;;;;;;;;;;;6159795;23;19916;-77
2023/03/06 02:26:09;;;;;;;;;;;;;;;;;;6160078;23;19917;-78
2023/03/06 02:28:35;;;;;;;;;;;;;;;;;;6161143;23;19970;-78
2023/03/06 02:31:00;;;;;;;;;;;;;;;;;;6164425;23;20038;-78
2023/03/06 02:33:29;;;;;;;;;;;;;;;;;;6162714;23;20475;-78
2023/03/06 02:35:55;;;;;;;;;;;;;;;;;;6161596;23;19957;-78
2023/03/06 02:38:20;;;;;;;;;;;;;;;;;;6161754;23;19912;-78
2023/03/06 02:40:46;;;;;;;;;;;;;;;;;;6136955;23;19935;-78
2023/03/06 02:43:11;;;;;;;;;;;;;;;;;;6164706;23;19912;-78
2023/03/06 02:45:36;;;;;;;;;;;;;;;;;;6164785;23;19963;-78
2023/03/06 02:48:02;;;;;;;;;;;;;;;;;;6160787;23;19988;-77
2023/03/06 02:50:27;;;;;;;;;;;;;;;;;;6136849;23;19913;-78
2023/03/06 02:52:53;;;;;;;;;;;;;;;;;;6161621;23;19916;-78
2023/03/06 02:55:18;;;;;;;;;;;;;;;;;;6157507;23;20342;-77
2023/03/06 02:57:44;;;;;;;;;;;;;;;;;;6159703;23;19928;-77
2023/03/06 03:00:09;;;;;;;;;;;;;;;;;;6160664;23;20278;-77
2023/03/06 03:02:34;;;;;;;;;;;;;;;;;;6157409;23;19912;-78
2023/03/06 03:05:00;;;;;;;;;;;;;;;;;;6156384;23;19909;-78
2023/03/06 03:07:25;;;;;;;;;;;;;;;;;;6157140;23;19909;-78
2023/03/06 03:09:51;;;;;;;;;;;;;;;;;;6156092;23;19916;-78
2023/03/06 03:12:17;;;;;;;;;;;;;;;;;;6131081;23;19905;-77
2023/03/06 03:14:43;;;;;;;;;;;;;;;;;;6156651;23;20216;-78
2023/03/06 03:17:08;;;;;;;;;;;;;;;;;;6154732;23;19908;-78
2023/03/06 03:19:34;;;;;;;;;;;;;;;;;;6155095;23;20373;-78
2023/03/06 03:21:59;;;;;;;;;;;;;;;;;;6129497;23;19916;-77
2023/03/06 03:24:24;;;;;;;;;;;;;;;;;;6156020;23;19909;-78
2023/03/06 03:26:50;;;;;;;;;;;;;;;;;;6154470;23;19931;-78
2023/03/06 03:29:17;;;;;;;;;;;;;;;;;;6204703;23;19917;-78
2023/03/06 03:31:42;;;;;;;;;;;;;;;;;;6154379;23;19988;-78
2023/03/06 03:34:08;;;;;;;;;;;;;;;;;;6154188;23;19916;-77
2023/03/06 03:36:36;;;;;;;;;;;;;;;;;;6154108;23;19936;-78
2023/03/06 03:39:02;;;;;;;;;;;;;;;;;;6154285;23;19908;-78
2023/03/06 03:41:28;;;;;;;;;;;;;;;;;;6203050;23;19912;-78
2023/03/06 03:43:53;;;;;;;;;;;;;;;;;;6129491;23;20397;-77
2023/03/06 03:46:20;;;;;;;;;;;;;;;;;;6153976;23;19909;-77
2023/03/06 03:48:46;;;;;;;;;;;;;;;;;;6204180;23;19920;-77
2023/03/06 03:51:11;;;;;;;;;;;;;;;;;;6153960;23;19916;-78
2023/03/06 03:53:40;;;;;;;;;;;;;;;;;;6153825;23;19955;-78
2023/03/06 03:56:07;;;;;;;;;;;;;;;;;;6129166;23;19909;-78
2023/03/06 03:58:38;;;;;;;;;;;;;;;;;;6105893;23;19912;-77
2023/03/06 04:01:04;;;;;;;;;;;;;;;;;;6153643;23;19913;-78
2023/03/06 04:03:29;;;;;;;;;;;;;;;;;;6154098;23;20338;-79
2023/03/06 04:05:56;;;;;;;;;;;;;;;;;;6153589;23;19916;-78
2023/03/06 04:08:23;;;;;;;;;;;;;;;;;;6154014;23;19991;-77
2023/03/06 04:10:48;;;;;;;;;;;;;;;;;;6153609;23;20303;-77
2023/03/06 04:13:14;;;;;;;;;;;;;;;;;;6153278;23;19908;-78
2023/03/06 04:15:42;;;;;;;;;;;;;;;;;;6153916;23;19963;-78
2023/03/06 04:18:08;;;;;;;;;;;;;;;;;;6153672;23;19962;-77
2023/03/06 04:20:34;;;;;;;;;;;;;;;;;;6153215;23;19956;-78
2023/03/06 04:23:00;;;;;;;;;;;;;;;;;;6153820;23;19932;-78
2023/03/06 04:25:26;;;;;;;;;;;;;;;;;;6128965;23;20247;-78
2023/03/06 04:27:51;;;;;;;;;;;;;;;;;;6153750;23;19916;-78
2023/03/06 04:30:16;;;;;;;;;;;;;;;;;;6128891;23;20275;-78
2023/03/06 04:32:42;;;;;;;;;;;;;;;;;;6153836;23;19916;-78
2023/03/06 04:35:08;;;;;;;;;;;;;;;;;;6129063;23;19909;-77
2023/03/06 04:37:40;;;;;;;;;;;;;;;;;;6153787;23;19936;-78
2023/03/06 04:40:06;;;;;;;;;;;;;;;;;;6153860;23;19909;-78
2023/03/06 04:42:31;;;;;;;;;;;;;;;;;;6128812;23;19912;-78
2023/03/06 04:44:56;;;;;;;;;;;;;;;;;;6154745;23;19984;-78
2023/03/06 04:47:22;;;;;;;;;;;;;;;;;;6153149;23;19985;-78
2023/03/06 04:49:47;;;;;;;;;;;;;;;;;;6154871;23;19919;-78
2023/03/06 04:52:13;;;;;;;;;;;;;;;;;;6155045;23;20335;-78
2023/03/06 04:54:38;;;;;;;;;;;;;;;;;;6129320;23;20341;-78
2023/03/06 04:57:03;;;;;;;;;;;;;;;;;;6155034;23;20377;-77
2023/03/06 04:59:29;;;;;;;;;;;;;;;;;;6153614;23;19932;-79
2023/03/06 05:01:54;;;;;;;;;;;;;;;;;;6156005;23;19912;-78
2023/03/06 05:04:19;;;;;;;;;;;;;;;;;;6156384;23;20326;-78
2023/03/06 05:06:45;;;;;;;;;;;;;;;;;;6130223;23;19939;-78
2023/03/06 05:09:10;;;;;;;;;;;;;;;;;;6153514;23;20335;-78
2023/03/06 05:11:35;;;;;;;;;;;;;;;;;;6153557;23;19975;-79
2023/03/06 05:14:01;;;;;;;;;;;;;;;;;;6155484;23;19920;-78
2023/03/06 05:16:26;;;;;;;;;;;;;;;;;;6153654;23;19987;-78
2023/03/06 05:18:52;;;;;;;;;;;;;;;;;;6154049;23;19909;-78
2023/03/06 05:21:17;;;;;;;;;;;;;;;;;;6154708;23;19979;-78
2023/03/06 05:23:43;;;;;;;;;;;;;;;;;;6155135;23;19908;-77
2023/03/06 05:26:08;;;;;;;;;;;;;;;;;;6154821;23;19928;-79
2023/03/06 05:28:33;;;;;;;;;;;;;;;;;;6128875;23;20330;-79
2023/03/06 05:30:59;;;;;;;;;;;;;;;;;;6155260;23;20270;-77
2023/03/06 05:33:25;;;;;;;;;;;;;;;;;;6157924;23;19959;-78
2023/03/06 05:35:50;;;;;;;;;;;;;;;;;;6158248;23;19916;-78
2023/03/06 05:38:16;;;;;;;;;;;;;;;;;;6156398;23;19908;-77
2023/03/06 05:40:41;;;;;;;;;;;;;;;;;;6156080;23;20172;-79
2023/03/06 05:43:07;;;;;;;;;;;;;;;;;;6157179;23;19915;-78
2023/03/06 05:45:32;;;;;;;;;;;;;;;;;;6156120;23;19909;-79
2023/03/06 05:47:57;;;;;;;;;;;;;;;;;;6156311;23;20044;-79
2023/03/06 05:50:23;;;;;;;;;;;;;;;;;;6156501;23;19920;-79
2023/03/06 05:52:48;;;;;;;;;;;;;;;;;;6157658;23;19916;-78
2023/03/06 05:55:14;;;;;;;;;;;;;;;;;;6157913;23;19909;-78
2023/03/06 05:57:40;;;;;;;;;;;;;;;;;;6207099;23;19939;-77
2023/03/06 06:00:05;;;;;;;;;;;;;;;;;;6159182;23;19909;-80
2023/03/06 06:02:37;;;;;;;;;;;;;;;;;;6156690;23;19921;-79
2023/03/06 06:05:03;;;;;;;;;;;;;;;;;;6131601;23;19916;-79
2023/03/06 06:07:28;;;;;;;;;;;;;;;;;;6156999;23;19950;-80
2023/03/06 06:09:54;;;;;;;;;;;;;;;;;;6156378;23;19916;-79
2023/03/06 06:12:19;;;;;;;;;;;;;;;;;;6157885;23;20319;-80
2023/03/06 06:14:44;;;;;;;;;;;;;;;;;;6160045;23;19945;-81
2023/03/06 06:17:11;;;;;;;;;;;;;;;;;;6159577;23;20003;-79
2023/03/06 06:19:36;;;;;;;;;;;;;;;;;;6157572;23;19987;-80
2023/03/06 06:22:02;;;;;;;;;;;;;;;;;;6109397;23;19912;-80
2023/03/06 06:24:28;;;;;;;;;;;;;;;;;;6160105;23;19915;-80
2023/03/06 06:26:53;;;;;;;;;;;;;;;;;;6161762;23;20287;-82
2023/03/06 06:29:18;;;;;;;;;;;;;;;;;;6160679;23;19913;-80
2023/03/06 06:31:44;;;;;;;;;;;;;;;;;;6162333;23;19916;-80
2023/03/06 06:34:09;;;;;;;;;;;;;;;;;;6160041;23;20285;-81
2023/03/06 06:36:34;;;;;;;;;;;;;;;;;;6132367;23;19915;-80
2023/03/06 06:39:00;;;;;;;;;;;;;;;;;;6131780;23;19909;-80
2023/03/06 06:41:25;;;;;;;;;;;;;;;;;;6156204;23;19908;-80
2023/03/06 06:43:51;;;;;;;;;;;;;;;;;;6156377;23;19935;-80
2023/03/06 06:46:16;;;;;;;;;;;;;;;;;;6158425;23;19908;-78
2023/03/06 06:48:41;;;;;;;;;;;;;;;;;;6159153;23;20234;-79
2023/03/06 06:51:07;;;;;;;;;;;;;;;;;;6159414;23;19920;-80
2023/03/06 06:53:32;;;;;;;;;;;;;;;;;;6133327;23;19909;-79
2023/03/06 06:55:58;;;;;;;;;;;;;;;;;;6158914;23;19996;-79
2023/03/06 06:58:23;;;;;;;;;;;;;;;;;;6158737;23;19909;-78
2023/03/06 07:00:48;;;;;;;;;;;;;;;;;;6154913;23;20236;-81
2023/03/06 07:03:16;;;;;;;;;;;;;;;;;;6155422;23;22732;-80
2023/03/06 07:05:41;;;;;;;;;;;;;;;;;;6155457;23;19908;-79
2023/03/06 07:08:06;;;;;;;;;;;;;;;;;;6155331;23;19909;-79
2023/03/06 07:10:32;;;;;;;;;;;;;;;;;;6157296;23;20044;-79
2023/03/06 07:12:58;;;;;;;;;;;;;;;;;;6156966;23;20251;-79
2023/03/06 07:15:25;;;;;;;;;;;;;;;;;;6157007;23;19963;-79
2023/03/06 07:17:51;;;;;;;;;;;;;;;;;;6154472;23;20000;-81
2023/03/06 07:20:19;;;;;;;;;;;;;;;;;;6156407;23;19908;-80
2023/03/06 07:22:45;;;;;;;;;;;;;;;;;;6158492;23;19921;-81
2023/03/06 07:25:11;;;;;;;;;;;;;;;;;;6157906;23;19920;-81
2023/03/06 07:27:36;;;;;;;;;;;;;;;;;;6160166;23;19951;-81
2023/03/06 07:30:02;;;;;;;;;;;;;;;;;;6157270;23;20354;-80
2023/03/06 07:32:27;;;;;;;;;;;;;;;;;;6133247;23;20231;-79
2023/03/06 07:34:52;;;;;;;;;;;;;;;;;;6132922;23;19909;-79
2023/03/06 07:37:18;;;;;;;;;;;;;;;;;;6134416;23;19933;-80
2023/03/06 07:39:43;;;;;;;;;;;;;;;;;;6163397;23;19940;-81
2023/03/06 07:42:08;;;;;;;;;;;;;;;;;;6160999;23;19957;-81
2023/03/06 07:44:34;;;;;;;;;;;;;;;;;;6158477;23;20440;-81
2023/03/06 07:47:00;;;;;;;;;;;;;;;;;;6160149;23;19912;-80
2023/03/06 07:49:25;;;;;;;;;;;;;;;;;;6160334;23;19913;-80
2023/03/06 07:51:50;;;;;;;;;;;;;;;;;;6159860;23;19928;-81
2023/03/06 07:54:16;;;;;;;;;;;;;;;;;;6159050;23;19908;-79
2023/03/06 07:56:41;;;;;;;;;;;;;;;;;;6131361;23;19961;-80
2023/03/06 07:59:07;;;;;;;;;;;;;;;;;;6158157;23;19988;-80
2023/03/06 08:01:32;;;;;;;;;;;;;;;;;;6156675;23;19913;-80
2023/03/06 08:03:59;;;;;;;;;;;;;;;;;;6157493;23;19915;-80
2023/03/06 08:06:25;;;;;;;;;;;;;;;;;;6157129;23;19955;-79
2023/03/06 08:08:50;;;;;;;;;;;;;;;;;;6157576;23;19913;-80
2023/03/06 08:11:15;;;;;;;;;;;;;;;;;;6158438;23;19936;-79
2023/03/06 08:13:41;;;;;;;;;;;;;;;;;;6171296;23;19896;-81
2023/03/06 08:16:06;;;;;;;;;;;;;;;;;;6175612;23;19915;-79
2023/03/06 08:18:32;;;;;;;;;;;;;;;;;;6147102;23;19909;-80
2023/03/06 08:20:57;;;;;;;;;;;;;;;;;;6143559;23;19916;-79
2023/03/06 08:23:22;;;;;;;;;;;;;;;;;;6166118;23;19915;-81
2023/03/06 08:25:48;;;;;;;;;;;;;;;;;;6160142;23;20335;-79
2023/03/06 08:28:13;;;;;;;;;;;;;;;;;;6161318;23;19908;-80
2023/03/06 08:30:39;;;;;;;;;;;;;;;;;;6160392;23;19919;-81
2023/03/06 08:33:04;;;;;;;;;;;;;;;;;;6162257;23;19916;-80
2023/03/06 08:35:30;;;;;;;;;;;;;;;;;;6159096;23;20373;-79
2023/03/06 08:37:55;;;;;;;;;;;;;;;;;;6158346;23;20251;-80
2023/03/06 08:40:25;;;;;;;;;;;;;;;;;;6135267;23;19909;-79
2023/03/06 08:42:51;;;;;;;;;;;;;;;;;;6159719;23;19975;-80
2023/03/06 08:53:24;;;;;;;;;;;;;;;;;;6114120;23;19920;-80
2023/03/06 09:12:05;;;;;;;;;;;;;;;;;;6105513;23;19916;-80
2023/03/06 09:33:30;;;;;;;;;;;;;;;;;;6134300;23;19924;-83
2023/03/06 09:35:57;;;;;;;;;;;;;;;;;;6185727;23;19908;-84
2023/03/06 09:38:25;;;;;;;;;;;;;;;;;;6183316;23;19938;-83
2023/03/06 09:40:51;;;;;;;;;;;;;;;;;;6185061;23;19897;-84
2023/03/06 09:45:59;;;;;;;;;;;;;;;;;;6148052;23;19921;-81
2023/03/06 09:48:24;;;;;;;;;;;;;;;;;;6080245;23;19922;-83
2023/03/06 09:50:50;;;;;;;;;;;;;;;;;;6049166;23;19917;-82
2023/03/06 09:53:16;;;;;;;;;;;;;;;;;;6120332;23;19925;-81
2023/03/06 09:56:00;;;;;;;;;;;;;;;;;;6176877;23;19921;-83
2023/03/06 09:58:27;;;;;;;;;;;;;;;;;;6136046;23;19904;-82
2023/03/06 10:06:19;;;;;;;;;;;;;;;;;;6165137;23;19917;-84
2023/03/06 10:08:48;;;;;;;;;;;;;;;;;;6184942;23;19913;-84
2023/03/06 10:14:04;;;;;;;;;;;;;;;;;;6183682;23;19904;-84
2023/03/06 10:19:20;;;;;;;;;;;;;;;;;;6126188;23;19933;-82
2023/03/06 10:22:13;;;;;;;;;;;;;;;;;;6148123;23;19912;-83
2023/03/06 10:24:39;;;;;;;;;;;;;;;;;;6124920;23;19924;-83
2023/03/06 10:27:08;;;;;;;;;;;;;;;;;;6125379;23;19897;-84
2023/03/06 10:29:34;;;;;;;;;;;;;;;;;;6124960;23;19915;-83
2023/03/06 10:32:04;;;;;;;;;;;;;;;;;;6125353;23;19918;-84
2023/03/06 10:34:35;;;;;;;;;;;;;;;;;;6124994;23;19919;-82
2023/03/06 10:37:03;;;;;;;;;;;;;;;;;;6129595;23;19913;-83
2023/03/06 10:39:28;;;;;;;;;;;;;;;;;;6159613;23;19916;-81
2023/03/06 10:41:54;;;;;;;;;;;;;;;;;;6134909;23;19897;-84
2023/03/06 10:44:20;;;;;;;;;;;;;;;;;;6135464;23;19904;-84
2023/03/06 10:46:50;;;;;;;;;;;;;;;;;;6158793;23;19920;-84
2023/03/06 10:49:16;;;;;;;;;;;;;;;;;;6159138;23;19917;-85
2023/03/06 10:51:41;;;;;;;;;;;;;;;;;;6134568;23;19940;-83
2023/03/06 10:54:07;;;;;;;;;;;;;;;;;;6157470;23;19924;-85
2023/03/06 10:56:33;;;;;;;;;;;;;;;;;;6183061;23;19897;-84
2023/03/06 10:58:59;;;;;;;;;;;;;;;;;;6184418;23;19928;-84
2023/03/06 11:01:25;;;;;;;;;;;;;;;;;;6116070;23;19933;-78
2023/03/06 11:09:14;;;;;;;;;;;;;;;;;;6123878;23;19905;-83
2023/03/06 11:11:39;;;;;;;;;;;;;;;;;;6168457;23;19897;-85
2023/03/06 11:14:05;;;;;;;;;;;;;;;;;;6153561;23;20315;-83
2023/03/06 11:16:31;;;;;;;;;;;;;;;;;;6152970;23;19909;-82
2023/03/06 11:18:56;;;;;;;;;;;;;;;;;;6127195;23;19909;-84
2023/03/06 11:21:22;;;;;;;;;;;;;;;;;;6116802;23;19909;-83
2023/03/06 11:23:48;;;;;;;;;;;;;;;;;;6130675;23;19897;-85
2023/03/06 11:28:55;;;;;;;;;;;;;;;;;;6180002;23;19905;-84
2023/03/06 11:36:44;;;;;;;;;;;;;;;;;;6136463;23;19932;-82
2023/03/06 11:44:28;;;;;;;;;;;;;;;;;;6140677;23;19943;-77
2023/03/06 11:46:54;;;;;;;;;;;;;;;;;;6120989;23;19904;-83
2023/03/06 12:02:48;;;;;;;;;;;;;;;;;;6195191;23;20342;-82
2023/03/06 12:05:14;;;;;;;;;;;;;;;;;;6204784;23;19908;-82
2023/03/06 12:07:43;;;;;;;;;;;;;;;;;;6156028;23;19931;-82
2023/03/06 12:10:11;;;;;;;;;;;;;;;;;;6206203;23;20334;-83
2023/03/06 12:12:37;;;;;;;;;;;;;;;;;;6185362;23;19909;-83
2023/03/06 12:15:03;;;;;;;;;;;;;;;;;;6185962;23;19915;-84
2023/03/06 12:17:28;;;;;;;;;;;;;;;;;;6207487;23;19908;-83
2023/03/06 12:19:54;;;;;;;;;;;;;;;;;;6185105;23;19916;-84
2023/03/06 12:22:20;;;;;;;;;;;;;;;;;;6182101;23;19958;-83
2023/03/06 12:30:06;;;;;;;;;;;;;;;;;;6184425;23;19920;-82
2023/03/06 12:32:33;;;;;;;;;;;;;;;;;;6162030;23;19909;-80
2023/03/06 12:34:59;;;;;;;;;;;;;;;;;;6177412;23;19945;-84
2023/03/06 12:37:25;;;;;;;;;;;;;;;;;;6154439;23;19920;-85
2023/03/06 12:39:54;;;;;;;;;;;;;;;;;;6154432;23;19915;-85
2023/03/06 12:59:25;;;;;;;;;;;;;;;;;;6160661;23;19919;-83
2023/03/06 13:28:36;;;;;;;;;;;;;;;;;;6204904;23;20358;-81
2023/03/06 13:31:02;;;;;;;;;;;;;;;;;;6187643;23;19948;-80
2023/03/06 13:33:35;;;;;;;;;;;;;;;;;;6197551;23;19920;-80
2023/03/06 13:36:00;;;;;;;;;;;;;;;;;;6171724;23;19912;-80
2023/03/06 13:38:26;;;;;;;;;;;;;;;;;;6196878;23;19908;-81
2023/03/06 13:40:51;;;;;;;;;;;;;;;;;;6196894;23;19931;-81
2023/03/06 13:43:17;;;;;;;;;;;;;;;;;;6196630;23;19909;-80
2023/03/06 13:45:42;;;;;;;;;;;;;;;;;;6197496;23;19909;-80
2023/03/06 13:48:08;;;;;;;;;;;;;;;;;;6202349;23;19916;-82
2023/03/06 13:50:36;;;;;;;;;;;;;;;;;;6214159;23;19907;-82
2023/03/06 13:53:02;;;;;;;;;;;;;;;;;;6185221;23;19920;-82
2023/03/06 13:55:30;;;;;;;;;;;;;;;;;;6209448;23;19908;-83
2023/03/06 13:57:56;;;;;;;;;;;;;;;;;;6164083;23;19923;-83
2023/03/06 14:00:22;;;;;;;;;;;;;;;;;;6188345;23;19905;-83
2023/03/06 14:02:48;;;;;;;;;;;;;;;;;;6213022;23;19908;-83
2023/03/06 14:05:13;;;;;;;;;;;;;;;;;;6211835;23;19957;-82
2023/03/06 14:07:40;;;;;;;;;;;;;;;;;;6183936;23;19936;-83
2023/03/06 14:10:05;;;;;;;;;;;;;;;;;;6181929;23;19928;-82
2023/03/06 14:12:31;;;;;;;;;;;;;;;;;;6168187;23;19912;-79
2023/03/06 14:14:56;;;;;;;;;;;;;;;;;;6186103;23;19905;-78
2023/03/06 14:17:22;;;;;;;;;;;;;;;;;;6160602;23;19909;-79
2023/03/06 14:19:47;;;;;;;;;;;;;;;;;;6161540;23;19914;-78
2023/03/06 14:22:12;;;;;;;;;;;;;;;;;;6187118;23;19916;-78
2023/03/06 14:24:38;;;;;;;;;;;;;;;;;;6186844;23;19913;-78
2023/03/06 14:27:03;;;;;;;;;;;;;;;;;;6185587;23;20334;-79
2023/03/06 14:29:29;;;;;;;;;;;;;;;;;;6186776;23;19935;-78
2023/03/06 14:31:54;;;;;;;;;;;;;;;;;;6184829;23;20304;-78
2023/03/06 14:34:19;;;;;;;;;;;;;;;;;;6185730;23;19912;-79
2023/03/06 14:36:45;;;;;;;;;;;;;;;;;;6188625;23;19904;-80
2023/03/06 14:39:10;;;;;;;;;;;;;;;;;;6185463;23;19916;-80
2023/03/06 14:41:36;;;;;;;;;;;;;;;;;;6185017;23;19916;-81
2023/03/06 14:44:01;;;;;;;;;;;;;;;;;;6187201;23;19928;-80
2023/03/06 14:46:26;;;;;;;;;;;;;;;;;;6162479;23;20326;-81
2023/03/06 14:48:52;;;;;;;;;;;;;;;;;;6185660;23;20095;-80
2023/03/06 14:51:17;;;;;;;;;;;;;;;;;;6184942;23;19916;-80
2023/03/06 14:53:43;;;;;;;;;;;;;;;;;;6186930;23;20285;-80
2023/03/06 14:56:09;;;;;;;;;;;;;;;;;;6186113;23;19983;-80
2023/03/06 14:58:34;;;;;;;;;;;;;;;;;;6186069;23;19908;-80
2023/03/06 15:01:00;;;;;;;;;;;;;;;;;;6161629;23;19912;-80
2023/03/06 15:03:25;;;;;;;;;;;;;;;;;;6186762;23;19905;-79
2023/03/06 15:05:51;;;;;;;;;;;;;;;;;;6185153;23;19908;-80
2023/03/06 15:08:16;;;;;;;;;;;;;;;;;;6165439;23;20346;-80
2023/03/06 15:10:43;;;;;;;;;;;;;;;;;;6193397;23;19908;-80
2023/03/06 15:13:08;;;;;;;;;;;;;;;;;;6202741;23;19915;-80
2023/03/06 15:15:33;;;;;;;;;;;;;;;;;;6201173;23;19908;-80
2023/03/06 15:17:59;;;;;;;;;;;;;;;;;;6173766;23;19919;-80
2023/03/06 15:20:24;;;;;;;;;;;;;;;;;;6196349;23;19909;-80
2023/03/06 15:22:50;;;;;;;;;;;;;;;;;;6193767;23;20302;-80
2023/03/06 15:25:15;;;;;;;;;;;;;;;;;;6187801;23;20250;-80
2023/03/06 15:27:40;;;;;;;;;;;;;;;;;;6185653;23;19984;-81
2023/03/06 15:30:06;;;;;;;;;;;;;;;;;;6186055;23;20298;-80
2023/03/06 15:32:31;;;;;;;;;;;;;;;;;;6187718;23;19918;-80
2023/03/06 15:34:57;;;;;;;;;;;;;;;;;;6186738;23;19908;-80
2023/03/06 15:37:22;;;;;;;;;;;;;;;;;;6187481;23;20254;-80
2023/03/06 15:39:47;;;;;;;;;;;;;;;;;;6186770;23;19915;-80
2023/03/06 15:42:13;;;;;;;;;;;;;;;;;;6185958;23;19909;-80
2023/03/06 15:44:38;;;;;;;;;;;;;;;;;;6161067;23;20279;-80
2023/03/06 15:47:03;;;;;;;;;;;;;;;;;;6186606;23;19908;-79
2023/03/06 15:49:29;;;;;;;;;;;;;;;;;;6187215;23;20234;-79
2023/03/06 15:51:54;;;;;;;;;;;;;;;;;;6186687;23;19908;-79
2023/03/06 15:54:20;;;;;;;;;;;;;;;;;;6185281;23;19936;-79
2023/03/06 15:56:45;;;;;;;;;;;;;;;;;;6186848;23;20342;-80
2023/03/06 15:59:11;;;;;;;;;;;;;;;;;;6198593;23;19923;-80
2023/03/06 16:01:36;;;;;;;;;;;;;;;;;;6193995;23;19908;-79
2023/03/06 16:04:02;;;;;;;;;;;;;;;;;;6184852;23;20326;-79
2023/03/06 16:06:28;;;;;;;;;;;;;;;;;;6185685;23;19909;-79
2023/03/06 16:08:53;;;;;;;;;;;;;;;;;;6185304;23;20362;-79
2023/03/06 16:11:19;;;;;;;;;;;;;;;;;;6159503;23;19915;-80
2023/03/06 16:13:44;;;;;;;;;;;;;;;;;;6184578;23;20008;-80
2023/03/06 16:16:09;;;;;;;;;;;;;;;;;;6184228;23;20334;-80
2023/03/06 16:18:35;;;;;;;;;;;;;;;;;;6185098;23;19909;-80
2023/03/06 16:21:00;;;;;;;;;;;;;;;;;;6186129;23;19908;-79
2023/03/06 16:23:26;;;;;;;;;;;;;;;;;;6186372;23;19915;-79
2023/03/06 16:25:51;;;;;;;;;;;;;;;;;;6185922;23;19908;-79
2023/03/06 16:28:16;;;;;;;;;;;;;;;;;;6185422;23;19908;-79
2023/03/06 16:30:42;;;;;;;;;;;;;;;;;;6185170;23;20322;-79
2023/03/06 16:33:07;;;;;;;;;;;;;;;;;;6185076;23;19987;-79
2023/03/06 16:35:33;;;;;;;;;;;;;;;;;;6186845;23;20335;-79
2023/03/06 16:37:58;;;;;;;;;;;;;;;;;;6189799;23;19958;-79
2023/03/06 16:40:24;;;;;;;;;;;;;;;;;;6189422;23;19982;-79
2023/03/06 16:42:49;;;;;;;;;;;;;;;;;;6189247;23;19991;-80
2023/03/06 16:45:15;;;;;;;;;;;;;;;;;;6189164;23;19908;-80
2023/03/06 16:47:40;;;;;;;;;;;;;;;;;;6187284;23;19914;-79
2023/03/06 16:50:06;;;;;;;;;;;;;;;;;;6189194;23;19991;-79
2023/03/06 16:52:32;;;;;;;;;;;;;;;;;;6188380;23;20325;-79
2023/03/06 16:54:57;;;;;;;;;;;;;;;;;;6187618;23;19908;-79
2023/03/06 16:57:23;;;;;;;;;;;;;;;;;;6188082;23;20096;-79
2023/03/06 16:59:48;;;;;;;;;;;;;;;;;;6188046;23;19909;-79
2023/03/06 17:02:14;;;;;;;;;;;;;;;;;;6189500;23;19915;-78
2023/03/06 17:04:39;;;;;;;;;;;;;;;;;;6187956;23;19912;-80
2023/03/06 17:07:05;;;;;;;;;;;;;;;;;;6188422;23;19915;-79
2023/03/06 17:09:30;;;;;;;;;;;;;;;;;;6161457;23;19935;-79
2023/03/06 17:11:55;;;;;;;;;;;;;;;;;;6188052;23;20246;-79
2023/03/06 17:14:21;;;;;;;;;;;;;;;;;;6189420;23;19967;-79
2023/03/06 17:16:46;;;;;;;;;;;;;;;;;;6185990;23;19931;-78
2023/03/06 17:19:14;;;;;;;;;;;;;;;;;;6184718;23;20009;-79
2023/03/06 17:21:39;;;;;;;;;;;;;;;;;;6185962;23;19955;-79
2023/03/06 17:24:04;;;;;;;;;;;;;;;;;;6185995;23;19909;-79
2023/03/06 17:26:30;;;;;;;;;;;;;;;;;;6161212;23;19912;-79
2023/03/06 17:28:55;;;;;;;;;;;;;;;;;;6186366;23;19918;-79
2023/03/06 17:31:20;;;;;;;;;;;;;;;;;;6188601;23;19963;-79
2023/03/06 17:33:46;;;;;;;;;;;;;;;;;;6190174;23;19959;-80
2023/03/06 17:36:13;;;;;;;;;;;;;;;;;;6190515;23;19911;-80
2023/03/06 17:38:38;;;;;;;;;;;;;;;;;;6189179;23;20409;-80
2023/03/06 17:41:04;;;;;;;;;;;;;;;;;;6189883;23;19955;-80
2023/03/06 17:43:29;;;;;;;;;;;;;;;;;;6189046;23;19979;-79
2023/03/06 17:45:54;;;;;;;;;;;;;;;;;;6188867;23;19908;-79
2023/03/06 17:48:20;;;;;;;;;;;;;;;;;;6188557;23;19912;-79
2023/03/06 17:50:45;;;;;;;;;;;;;;;;;;6188161;23;19912;-80
2023/03/06 17:53:10;;;;;;;;;;;;;;;;;;6163806;23;19908;-80
2023/03/06 17:55:36;;;;;;;;;;;;;;;;;;6190935;23;19908;-80
2023/03/06 17:58:01;;;;;;;;;;;;;;;;;;6163850;23;19915;-80
2023/03/06 18:00:27;;;;;;;;;;;;;;;;;;6189786;23;20223;-79
2023/03/06 18:02:52;;;;;;;;;;;;;;;;;;6192848;23;19928;-82
2023/03/06 18:05:20;;;;;;;;;;;;;;;;;;6168745;23;19932;-80
2023/03/06 18:07:58;;;;;;;;;;;;;;;;;;6195125;23;19908;-83
2023/03/06 18:10:26;;;;;;;;;;;;;;;;;;6201573;23;19912;-83
2023/03/06 18:12:52;;;;;;;;;;;;;;;;;;6199993;23;19912;-82
2023/03/06 18:15:18;;;;;;;;;;;;;;;;;;6206138;23;19952;-83
2023/03/06 18:17:44;;;;;;;;;;;;;;;;;;6184292;23;19909;-84
2023/03/06 18:20:09;;;;;;;;;;;;;;;;;;6182992;23;19939;-83
2023/03/06 18:22:35;;;;;;;;;;;;;;;;;;6209319;23;19923;-83
2023/03/06 18:25:01;;;;;;;;;;;;;;;;;;6212718;23;19893;-84
2023/03/06 18:27:26;;;;;;;;;;;;;;;;;;6212093;23;19908;-81
2023/03/06 18:29:54;;;;;;;;;;;;;;;;;;6212360;23;19924;-84
2023/03/06 18:32:23;;;;;;;;;;;;;;;;;;6210996;23;19909;-84
2023/03/06 18:34:49;;;;;;;;;;;;;;;;;;6212685;23;19943;-84
2023/03/06 18:37:15;;;;;;;;;;;;;;;;;;6214475;23;19917;-83
2023/03/06 18:39:43;;;;;;;;;;;;;;;;;;6163034;23;19908;-83
2023/03/06 18:42:12;;;;;;;;;;;;;;;;;;6212676;23;19919;-82
2023/03/06 18:44:40;;;;;;;;;;;;;;;;;;6209369;23;19976;-83
2023/03/06 18:47:06;;;;;;;;;;;;;;;;;;6180113;23;19908;-81
2023/03/06 18:49:31;;;;;;;;;;;;;;;;;;6206279;23;19922;-82
2023/03/06 18:51:57;;;;;;;;;;;;;;;;;;6209410;23;19987;-83
2023/03/06 18:54:27;;;;;;;;;;;;;;;;;;6180189;23;19908;-83